Snoqualmie Pass, Washington
Current Conditions -  °F | °C
As of 5:53 AM on Thursday 30 Oct 2014 (Local Time) from KRNT Reporting Station
Overcast Overcast  
Wind Chill: 53°   Ceiling: 8000
Heat Index: 53°   Visibility: 10mi
Dew Point: 52°   Wind: 5mph
Humidity: 96%   Direction: 300°WNW
Pressure: 29.89"   Gusts: NA
Location:  47.43°N, 121.4°W
Report Text: KRNT 301253Z AUTO 30004KT 10SM OVC080 12/11 A2989 RMK AO2 SLP125 T01170111 $
Loading
Personal Weather Stations






























Interactive Weather Map
Tropical Storm Tracking
New forecast layout! Learn more

10-Day Weather Forecast

Advertisements
Track Severe Weather on mobile